Time;durP1;ratioP1;P1;durP2;ratioP2;P2;SDS_P1;SDS_P2;PMS_P1;PMS_P2;Temp;Humidity;BMP_temperature;BMP_pressure;BME280_temperature;BME280_humidity;BME280_pressure;Samples;Min_cycle;Max_cycle;Signal;HPM_P1;HPM_P2
2022/08/07 00:00:32;;;;;;;7.03;4.43;;;;;;;13.06;100.00;102622.88;5033710;28;20044;-50
2022/08/07 00:02:57;;;;;;;4.75;4.20;;;;;;;12.73;100.00;102564.31;5033815;28;20038;-56
2022/08/07 00:05:23;;;;;;;4.90;4.47;;;;;;;12.79;100.00;102576.56;5033575;28;20473;-51
2022/08/07 00:07:49;;;;;;;5.55;4.90;;;;;;;13.01;100.00;102617.66;5033632;28;20061;-54
2022/08/07 00:10:15;;;;;;;5.22;4.70;;;;;;;12.61;100.00;102551.25;5034685;28;20048;-49
2022/08/07 00:12:42;;;;;;;5.88;4.65;;;;;;;12.88;100.00;102593.16;5034427;28;20446;-52
2022/08/07 00:15:08;;;;;;;5.38;4.88;;;;;;;12.94;100.00;102606.31;5017080;28;20394;-55
2022/08/07 00:17:34;;;;;;;5.57;4.95;;;;;;;12.63;100.00;102553.91;5033480;28;20063;-56
2022/08/07 00:19:59;;;;;;;5.45;4.88;;;;;;;12.53;100.00;102550.50;5034520;28;20443;-50
2022/08/07 00:22:24;;;;;;;6.80;4.63;;;;;;;12.89;100.00;102616.06;5033610;28;20678;-56
2022/08/07 00:24:49;;;;;;;4.78;4.28;;;;;;;12.87;100.00;102614.34;5033315;28;20038;-50
2022/08/07 00:27:15;;;;;;;5.93;5.32;;;;;;;12.82;100.00;102621.44;5034347;28;20063;-52
2022/08/07 00:29:40;;;;;;;6.30;4.80;;;;;;;12.49;100.00;102563.78;5033175;28;20048;-54
2022/08/07 00:32:06;;;;;;;5.10;4.60;;;;;;;12.66;100.00;102598.78;5034374;28;20048;-50
2022/08/07 00:34:31;;;;;;;5.35;4.85;;;;;;;12.76;100.00;102618.88;5034283;28;20499;-54
2022/08/07 00:36:56;;;;;;;5.85;4.88;;;;;;;12.65;100.00;102597.91;5034266;28;20045;-51
2022/08/07 00:39:22;;;;;;;5.10;4.55;;;;;;;12.70;100.00;102606.63;4999928;28;20049;-49
2022/08/07 00:41:56;;;;;;;6.03;5.25;;;;;;;12.66;100.00;102606.69;5033095;28;20492;-49
2022/08/07 00:44:22;;;;;;;5.05;4.53;;;;;;;12.65;100.00;102607.59;5034175;28;20033;-52
2022/08/07 00:46:48;;;;;;;5.55;4.47;;;;;;;12.59;100.00;102611.19;5034147;28;20112;-54
2022/08/07 00:49:13;;;;;;;5.28;4.03;;;;;;;12.31;100.00;102565.75;5032588;28;20033;-50
2022/08/07 00:51:39;;;;;;;5.88;4.35;;;;;;;12.51;100.00;102601.59;5034148;28;20037;-48
2022/08/07 00:54:04;;;;;;;4.88;4.47;;;;;;;12.55;100.00;102611.25;5034184;28;20120;-50
2022/08/07 00:56:30;;;;;;;4.93;4.53;;;;;;;12.56;100.00;102603.28;5032734;28;20473;-50
2022/08/07 00:58:56;;;;;;;4.78;4.05;;;;;;;12.26;100.00;102548.19;5033810;28;20469;-49
2022/08/07 01:01:22;;;;;;;5.70;4.57;;;;;;;12.52;100.00;102598.09;5032523;28;20069;-47
2022/08/07 01:03:49;;;;;;;5.70;4.68;;;;;;;12.50;100.00;102597.19;5032687;28;20072;-48
2022/08/07 01:06:15;;;;;;;5.80;4.53;;;;;;;12.36;100.00;102578.91;5032795;28;20044;-48
2022/08/07 01:08:41;;;;;;;5.53;5.13;;;;;;;12.45;100.00;102594.63;5033407;28;20542;-51
2022/08/07 01:11:06;;;;;;;6.78;5.43;;;;;;;12.47;100.00;102591.97;5033728;28;20038;-49
2022/08/07 01:13:32;;;;;;;7.10;5.50;;;;;;;12.42;100.00;102586.75;5032452;28;20464;-53
2022/08/07 01:15:58;;;;;;;5.18;4.68;;;;;;;12.35;100.00;102583.31;5033606;28;20034;-50
2022/08/07 01:18:23;;;;;;;6.50;4.88;;;;;;;9.94;100.00;102180.75;5032257;28;20129;-48
2022/08/07 01:21:06;;;;;;;6.00;4.97;;;;;;;12.40;100.00;102594.66;5032358;28;20076;-53
2022/08/07 01:23:32;;;;;;;8.02;5.25;;;;;;;12.38;100.00;102588.53;5032702;28;20129;-49
2022/08/07 01:25:57;;;;;;;5.78;5.28;;;;;;;11.98;100.00;102513.34;5032223;28;20112;-53
2022/08/07 01:28:23;;;;;;;6.18;5.57;;;;;;;11.96;100.00;102509.88;5033171;28;20078;-52
2022/08/07 01:30:49;;;;;;;6.60;5.35;;;;;;;12.31;100.00;102578.97;5031700;28;20099;-54
2022/08/07 01:33:14;;;;;;;6.70;5.45;;;;;;;12.27;100.00;102569.31;5033400;28;20036;-51
2022/08/07 01:35:39;;;;;;;7.00;5.88;;;;;;;12.32;100.00;102582.44;5033295;28;20033;-51
2022/08/07 01:38:06;;;;;;;7.40;6.35;;;;;;;12.32;100.00;102580.69;5033263;28;20087;-51
2022/08/07 01:40:32;;;;;;;6.20;5.63;;;;;;;12.29;100.00;102572.81;5031508;28;20057;-55
2022/08/07 01:42:57;;;;;;;6.35;5.70;;;;;;;12.00;100.00;102529.16;5031617;28;20044;-54
2022/08/07 01:45:23;;;;;;;6.93;5.60;;;;;;;11.93;100.00;102519.59;5031684;28;20033;-54
2022/08/07 01:47:48;;;;;;;5.95;5.40;;;;;;;11.88;100.00;102513.50;5031932;28;20479;-52
2022/08/07 01:50:14;;;;;;;6.07;5.25;;;;;;;11.89;100.00;102517.84;5031512;28;20047;-50
2022/08/07 01:52:40;;;;;;;7.35;6.22;;;;;;;11.91;100.00;102518.72;5031806;28;20424;-52
2022/08/07 01:55:09;;;;;;;7.25;6.18;;;;;;;11.89;100.00;102517.84;5031580;28;20041;-52
2022/08/07 01:57:36;;;;;;;6.95;6.22;;;;;;;12.19;100.00;102568.53;5032902;28;20038;-53
2022/08/07 02:00:05;;;;;;;6.57;5.82;;;;;;;11.82;100.00;102510.00;5031397;28;20495;-58
2022/08/07 02:02:37;;;;;;;13.20;6.43;;;;;;;11.87;100.00;102511.72;5032984;28;20037;-56
2022/08/07 02:05:08;;;;;;;7.15;5.50;;;;;;;12.14;100.00;102557.13;5031621;28;20380;-50
2022/08/07 02:07:48;;;;;;;7.05;6.35;;;;;;;12.03;100.00;102559.03;5031610;28;20144;-49
2022/08/07 02:10:15;;;;;;;6.07;5.43;;;;;;;11.72;100.00;102500.47;5030727;28;20046;-48
2022/08/07 02:12:43;;;;;;;6.78;5.90;;;;;;;11.93;100.00;102532.78;5031139;28;20056;-49
2022/08/07 02:15:09;;;;;;;7.15;6.45;;;;;;;11.69;100.00;102496.94;5030774;28;20021;-49
2022/08/07 02:17:36;;;;;;;8.32;6.15;;;;;;;11.97;100.00;102542.38;5031226;28;20481;-55
2022/08/07 02:20:03;;;;;;;9.73;6.65;;;;;;;11.72;100.00;102507.50;5031197;28;20439;-52
2022/08/07 02:22:29;;;;;;;7.10;6.40;;;;;;;11.64;100.00;102491.72;5031254;28;20095;-54
2022/08/07 02:24:56;;;;;;;7.53;6.50;;;;;;;12.01;100.00;102565.22;5031147;28;20118;-48
2022/08/07 02:27:23;;;;;;;8.77;6.90;;;;;;;11.84;100.00;102531.13;5032211;28;20076;-50
2022/08/07 02:29:49;;;;;;;7.55;6.65;;;;;;;11.62;100.00;102488.22;5032246;28;20041;-55
2022/08/07 02:32:16;;;;;;;8.45;7.35;;;;;;;11.91;100.00;102534.56;5031141;28;20038;-53
2022/08/07 02:34:43;;;;;;;7.97;7.15;;;;;;;12.01;100.00;102552.91;5030526;28;20044;-50
2022/08/07 02:37:09;;;;;;;7.70;7.00;;;;;;;11.66;100.00;102492.56;5031071;28;20079;-54
2022/08/07 02:39:35;;;;;;;9.07;7.07;;;;;;;11.97;100.00;102545.03;5030877;28;20502;-51
2022/08/07 02:42:02;;;;;;;11.10;7.60;;;;;;;11.81;100.00;102518.84;5031241;28;20026;-47
2022/08/07 02:44:28;;;;;;;7.88;7.18;;;;;;;11.65;100.00;102495.22;5031181;28;20091;-51
2022/08/07 02:46:55;;;;;;;11.05;8.02;;;;;;;11.60;100.00;102486.47;5031092;28;20041;-53
2022/08/07 02:49:21;;;;;;;9.48;8.35;;;;;;;11.56;100.00;102483.00;5032048;28;20087;-48
2022/08/07 02:51:47;;;;;;;9.30;8.40;;;;;;;11.93;100.00;102543.34;5030631;28;20033;-49
2022/08/07 02:54:14;;;;;;;9.82;8.82;;;;;;;11.53;100.00;102477.75;5030710;28;20438;-48
2022/08/07 02:56:40;;;;;;;10.30;9.30;;;;;;;11.59;100.00;102484.72;5031164;28;20034;-55
2022/08/07 02:59:09;;;;;;;11.30;9.00;;;;;;;11.88;100.00;102538.09;5031058;28;20029;-51
2022/08/07 03:01:37;;;;;;;10.70;9.63;;;;;;;11.60;100.00;102483.84;5031966;28;20025;-51
2022/08/07 03:04:04;;;;;;;11.48;9.90;;;;;;;11.92;100.00;102545.09;5030726;28;20044;-51
2022/08/07 03:06:29;;;;;;;13.00;9.73;;;;;;;11.88;100.00;102540.72;5030842;28;20117;-51
2022/08/07 03:08:55;;;;;;;10.25;9.02;;;;;;;11.85;100.00;102546.03;5014063;28;20121;-52
2022/08/07 03:11:20;;;;;;;9.68;8.70;;;;;;;11.80;100.00;102540.81;5030945;28;20457;-51
2022/08/07 03:13:46;;;;;;;11.10;9.57;;;;;;;11.78;100.00;102544.38;5030904;28;20041;-53
2022/08/07 03:16:11;;;;;;;10.60;9.57;;;;;;;11.75;100.00;102561.09;5030925;28;20087;-54
2022/08/07 03:18:37;;;;;;;11.73;10.57;;;;;;;11.74;100.00;102540.00;5030900;28;20397;-56
2022/08/07 03:21:06;;;;;;;14.25;11.02;;;;;;;11.74;100.00;102558.47;5030561;28;20045;-52
2022/08/07 03:23:31;;;;;;;11.70;10.40;;;;;;;11.46;100.00;102481.38;5030683;28;20582;-56
2022/08/07 03:25:59;;;;;;;12.13;10.88;;;;;;;11.71;100.00;102543.56;5030686;28;20033;-56
2022/08/07 03:28:25;;;;;;;14.32;11.32;;;;;;;11.64;100.00;102518.09;5030625;28;20469;-57
2022/08/07 03:31:17;;;;;;;11.75;10.55;;;;;;;11.62;100.00;102518.97;5030588;28;20037;-49
2022/08/07 03:33:36;;;;;;;13.30;11.95;;;;;;;11.34;100.00;102481.47;5030523;28;20034;-57
2022/08/07 03:36:02;;;;;;;12.23;10.93;;;;;;;11.42;100.00;102497.22;5030480;28;20165;-49
2022/08/07 03:38:27;;;;;;;13.25;11.95;;;;;;;11.62;100.00;102537.44;5030274;28;20077;-47
2022/08/07 03:40:53;;;;;;;15.18;12.75;;;;;;;11.55;100.00;102531.38;5031884;28;20120;-51
2022/08/07 03:43:18;;;;;;;14.95;13.40;;;;;;;11.18;100.00;102470.19;5032047;28;20088;-55
2022/08/07 03:45:44;;;;;;;16.95;15.13;;;;;;;11.25;100.00;102471.91;5030448;28;20032;-55
2022/08/07 03:48:09;;;;;;;17.30;15.43;;;;;;;11.58;100.00;102530.47;5033428;28;20048;-49
2022/08/07 03:50:35;;;;;;;18.15;14.70;;;;;;;11.55;100.00;102525.22;5033761;28;20037;-48
2022/08/07 03:53:01;;;;;;;15.32;13.77;;;;;;;11.47;100.00;102519.16;5035013;28;20120;-54
2022/08/07 03:55:28;;;;;;;19.88;15.77;;;;;;;11.49;100.00;102526.16;5034302;28;20033;-48
2022/08/07 03:57:54;;;;;;;16.98;15.05;;;;;;;11.50;100.00;102533.16;5035131;28;20063;-52
2022/08/07 04:00:19;;;;;;;16.38;14.60;;;;;;;11.47;100.00;102527.06;5043880;28;20112;-48
2022/08/07 04:02:45;;;;;;;18.13;16.17;;;;;;;11.44;100.00;102532.38;5052326;28;20539;-50
2022/08/07 04:05:10;;;;;;;18.23;14.60;;;;;;;10.85;100.00;102428.34;5052665;28;20029;-50
2022/08/07 04:07:36;;;;;;;18.17;14.57;;;;;;;11.06;100.00;102462.38;5054613;28;20073;-49
2022/08/07 04:10:02;;;;;;;16.45;14.73;;;;;;;11.39;100.00;102529.75;5052231;28;20131;-54
2022/08/07 04:12:29;;;;;;;16.42;14.73;;;;;;;11.06;100.00;102472.94;5053990;28;20396;-56
2022/08/07 04:14:55;;;;;;;17.55;15.25;;;;;;;11.30;100.00;102522.81;5053270;28;20033;-55
2022/08/07 04:17:21;;;;;;;19.48;15.40;;;;;;;11.07;100.00;102479.06;5053504;28;20052;-50
2022/08/07 04:19:46;;;;;;;18.45;15.73;;;;;;;11.36;100.00;102527.16;5054254;28;20076;-51
2022/08/07 04:22:13;;;;;;;19.33;15.73;;;;;;;10.98;100.00;102461.59;5053421;28;20037;-54
2022/08/07 04:24:38;;;;;;;17.67;15.77;;;;;;;11.29;100.00;102517.56;5053179;28;20028;-52
2022/08/07 04:27:04;;;;;;;19.85;15.05;;;;;;;11.21;100.00;102506.19;5052164;28;20035;-52
2022/08/07 04:29:29;;;;;;;19.02;15.65;;;;;;;11.21;100.00;102496.53;5054414;28;20095;-52
2022/08/07 04:31:55;;;;;;;17.63;15.82;;;;;;;11.30;100.00;102524.56;5053143;28;20056;-54
2022/08/07 04:34:21;;;;;;;16.52;14.82;;;;;;;11.00;100.00;102482.66;5054211;28;20288;-53
2022/08/07 04:36:46;;;;;;;16.80;15.00;;;;;;;11.30;100.00;102538.63;5054428;28;20102;-48
2022/08/07 04:39:12;;;;;;;17.27;15.27;;;;;;;11.30;100.00;102540.38;5054070;28;20049;-57
2022/08/07 04:41:37;;;;;;;17.40;15.60;;;;;;;11.15;100.00;102516.78;5054190;28;20061;-52
2022/08/07 04:44:03;;;;;;;16.38;14.35;;;;;;;10.95;100.00;102476.53;5054256;28;20040;-50
2022/08/07 04:46:38;;;;;;;16.70;15.02;;;;;;;11.12;100.00;102512.41;5019675;28;20549;-53
2022/08/07 04:49:17;;;;;;;17.17;14.77;;;;;;;11.21;100.00;102527.28;5052986;28;20041;-49
2022/08/07 04:52:04;;;;;;;20.45;15.68;;;;;;;11.36;100.00;102550.88;5052866;28;20061;-56
2022/08/07 04:54:38;;;;;;;16.00;14.35;;;;;;;11.35;100.00;102551.78;5052821;28;20025;-49
2022/08/07 04:57:12;;;;;;;16.98;15.02;;;;;;;11.36;100.00;102553.50;5053818;28;20368;-51
2022/08/07 04:59:52;;;;;;;17.63;14.95;;;;;;;11.44;100.00;102564.84;5052682;28;20037;-48
2022/08/07 05:02:27;;;;;;;17.02;15.20;;;;;;;11.45;100.00;102556.06;5035960;28;20025;-53
2022/08/07 05:04:57;;;;;;;15.35;13.85;;;;;;;11.25;100.00;102516.72;5052579;28;20484;-54
2022/08/07 05:07:29;;;;;;;15.98;14.27;;;;;;;11.50;100.00;102561.31;5053692;28;20051;-53
2022/08/07 05:10:18;;;;;;;21.73;14.15;;;;;;;11.51;100.00;102558.66;5053570;28;20071;-52
2022/08/07 05:12:51;;;;;;;16.42;14.57;;;;;;;11.53;100.00;102548.97;5052143;28;20043;-49
2022/08/07 05:15:20;;;;;;;16.17;14.23;;;;;;;11.26;100.00;102493.88;5052251;28;20494;-49
2022/08/07 05:17:47;;;;;;;15.57;13.75;;;;;;;11.65;100.00;102555.88;5051872;28;20033;-52
2022/08/07 05:20:16;;;;;;;14.65;12.45;;;;;;;11.07;100.00;102445.69;5051707;28;20035;-51
2022/08/07 05:22:43;;;;;;;15.85;13.70;;;;;;;11.66;100.00;102533.91;5052878;28;20106;-50
2022/08/07 05:25:10;;;;;;;16.15;14.43;;;;;;;11.67;100.00;102525.09;5053100;28;20063;-56
2022/08/07 05:27:37;;;;;;;17.40;14.32;;;;;;;11.87;100.00;102548.66;5051883;28;20029;-48
2022/08/07 05:30:03;;;;;;;17.20;14.85;;;;;;;11.93;100.00;102552.13;5051775;28;20556;-55
2022/08/07 05:32:29;;;;;;;17.02;14.77;;;;;;;12.01;100.00;102554.66;5051252;28;20117;-48
2022/08/07 05:34:55;;;;;;;16.50;14.75;;;;;;;12.12;100.00;102563.34;5035302;28;20549;-48
2022/08/07 05:37:21;;;;;;;16.08;13.50;;;;;;;12.20;100.00;102572.06;5052049;28;20500;-55
2022/08/07 05:39:46;;;;;;;15.23;13.45;;;;;;;12.35;100.00;102566.56;5051520;28;20060;-49
2022/08/07 05:42:13;;;;;;;16.45;14.35;;;;;;;12.04;100.00;102486.91;5053061;28;20037;-50
2022/08/07 05:44:39;;;;;;;14.73;13.23;;;;;;;12.57;100.00;102559.25;5035071;28;20067;-51
2022/08/07 05:47:05;;;;;;;15.32;13.73;;;;;;;12.71;100.00;102558.19;5051585;28;20076;-48
2022/08/07 05:49:31;;;;;;;14.48;13.07;;;;;;;12.83;100.00;102549.22;5053028;28;20033;-48
2022/08/07 05:51:56;;;;;;;15.98;13.27;;;;;;;12.74;100.00;102496.50;5053025;28;20098;-48
2022/08/07 05:54:21;;;;;;;13.38;11.95;;;;;;;12.85;100.00;102490.13;5053134;28;20045;-48
2022/08/07 05:56:47;;;;;;;14.52;12.30;;;;;;;13.23;100.00;102539.78;5051614;28;20033;-56
2022/08/07 05:59:16;;;;;;;13.27;11.60;;;;;;;13.33;100.00;102532.59;5052637;28;20036;-49
2022/08/07 06:01:43;;;;;;;13.52;11.30;;;;;;;13.27;100.00;102506.25;5052570;28;20058;-55
2022/08/07 06:04:09;;;;;;;13.30;11.07;;;;;;;13.40;100.00;102510.41;5051565;28;20032;-49
2022/08/07 06:06:35;;;;;;;12.10;10.02;;;;;;;13.47;100.00;102510.28;5051231;28;20048;-50
2022/08/07 06:09:01;;;;;;;12.40;11.05;;;;;;;13.98;100.00;102577.25;5050959;28;20077;-51
2022/08/07 06:11:26;;;;;;;14.93;12.70;;;;;;;14.01;100.00;102539.25;5051342;28;20029;-51
2022/08/07 06:13:52;;;;;;;15.90;13.48;;;;;;;14.24;100.00;102560.00;5051069;28;20044;-50
2022/08/07 06:16:19;;;;;;;14.77;13.30;;;;;;;14.38;100.00;102563.25;5050971;28;20468;-58
2022/08/07 06:18:45;;;;;;;11.43;10.23;;;;;;;14.16;100.00;102498.34;5051125;28;20037;-51
2022/08/07 06:21:10;;;;;;;13.45;12.05;;;;;;;14.49;100.00;102540.06;5052491;28;20124;-51
2022/08/07 06:23:36;;;;;;;10.75;9.70;;;;;;;14.73;100.00;102554.53;5050920;28;20120;-50
2022/08/07 06:26:02;;;;;;;12.10;9.95;;;;;;;14.55;100.00;102513.41;5051176;28;20376;-56
2022/08/07 06:28:28;;;;;;;11.95;9.65;;;;;;;15.05;100.00;102575.91;5052321;28;20492;-52
2022/08/07 06:30:53;;;;;;;10.23;9.10;;;;;;;15.16;100.00;102576.50;5052140;28;20033;-51
2022/08/07 06:33:19;;;;;;;12.60;8.38;;;;;;;15.31;100.00;102573.50;5052186;28;20112;-54
2022/08/07 06:35:44;;;;;;;9.63;8.60;;;;;;;15.07;100.00;102516.59;5052177;28;20052;-49
2022/08/07 06:38:10;;;;;;;9.73;7.45;;;;;;;15.49;100.00;102573.06;5051219;28;20037;-50
2022/08/07 06:40:42;;;;;;;8.27;7.32;;;;;;;15.70;100.00;102600.84;5052135;28;20057;-57
2022/08/07 06:43:09;;;;;;;6.38;5.78;;;;;;;15.76;100.00;102587.41;5050981;28;20380;-54
2022/08/07 06:45:34;;;;;;;6.78;6.07;;;;;;;15.63;100.00;102548.81;5052072;28;20068;-51
2022/08/07 06:48:00;;;;;;;6.88;5.50;;;;;;;16.03;100.00;102607.03;5034402;28;20590;-55
2022/08/07 06:50:26;;;;;;;6.30;5.63;;;;;;;15.93;100.00;102563.94;5052107;28;20032;-52
2022/08/07 06:52:53;;;;;;;7.32;5.13;;;;;;;16.16;100.00;102596.06;5050716;28;20029;-60
2022/08/07 06:55:22;;;;;;;6.00;5.50;;;;;;;16.48;100.00;102631.47;5051007;28;20083;-54
2022/08/07 06:57:49;;;;;;;7.38;6.00;;;;;;;16.58;100.00;102633.00;5050706;28;20033;-57
2022/08/07 07:00:15;;;;;;;6.18;5.40;;;;;;;16.66;100.00;102645.16;5050518;28;20057;-51
2022/08/07 07:02:41;;;;;;;6.15;5.20;;;;;;;16.74;100.00;102636.94;5051894;28;20116;-50
2022/08/07 07:05:06;;;;;;;6.55;5.90;;;;;;;16.62;100.00;102587.66;5050965;28;20133;-55
2022/08/07 07:07:32;;;;;;;5.40;4.93;;;;;;;17.03;100.00;102646.69;5050732;28;20047;-58
2022/08/07 07:09:57;;;;;;;7.32;5.20;;;;;;;16.88;100.00;102617.00;5050188;28;20136;-50
2022/08/07 07:12:38;;;;;;;5.95;5.40;;;;;;;17.19;100.00;102655.97;5051754;28;20041;-51
2022/08/07 07:15:12;;;;;;;6.32;5.72;;;;;;;17.32;100.00;102654.66;5051964;28;20500;-49
2022/08/07 07:17:47;;;;;;;8.77;5.68;;;;;;;17.48;100.00;102661.25;5051964;28;20032;-50
2022/08/07 07:20:16;;;;;;;5.70;5.20;;;;;;;17.32;100.00;102633.34;5050570;28;20025;-58
2022/08/07 07:22:42;;;;;;;5.88;5.30;;;;;;;17.52;100.00;102646.00;5053048;28;20151;-56
2022/08/07 07:25:09;;;;;;;6.25;5.18;;;;;;;17.73;100.00;102645.34;5055524;28;20075;-57
2022/08/07 07:27:39;;;;;;;5.57;5.07;;;;;;;17.85;100.00;102664.47;5054300;28;20099;-55
2022/08/07 07:30:06;;;;;;;5.67;5.03;;;;;;;17.72;100.00;102619.63;5054066;28;20121;-52
2022/08/07 07:32:33;;;;;;;5.18;4.78;;;;;;;18.11;100.00;102660.03;5055256;28;20466;-57
2022/08/07 07:35:01;;;;;;;7.35;4.80;;;;;;;17.88;100.00;102575.56;5054231;28;20082;-52
2022/08/07 07:37:28;;;;;;;4.35;3.97;;;;;;;18.68;100.00;102657.09;5054017;28;20037;-52
2022/08/07 07:39:57;;;;;;;4.70;3.40;;;;;;;18.90;100.00;102668.69;5055318;28;20045;-50
2022/08/07 07:42:24;;;;;;;3.10;2.90;;;;;;;19.07;100.00;102632.41;5054088;28;20499;-53
2022/08/07 07:44:51;;;;;;;3.45;2.88;;;;;;;19.69;100.00;102668.22;5054200;28;20063;-58
2022/08/07 07:47:17;;;;;;;3.58;2.65;;;;;;;20.33;100.00;102667.25;5037279;28;20029;-54
2022/08/07 07:49:44;;;;;;;3.22;2.92;;;;;;;20.73;100.00;102627.03;5055148;28;20136;-54
2022/08/07 07:52:11;;;;;;;3.25;2.92;;;;;;;21.50;100.00;102668.00;5055055;28;20029;-54
2022/08/07 07:54:38;;;;;;;3.67;2.97;;;;;;;21.72;100.00;102657.06;5055347;28;20033;-52
2022/08/07 07:57:04;;;;;;;3.63;3.33;;;;;;;22.13;100.00;102677.28;5053743;28;20460;-58
2022/08/07 07:59:29;;;;;;;2.55;2.25;;;;;;;22.34;100.00;102673.50;5054765;28;20038;-59
2022/08/07 08:01:55;;;;;;;4.72;2.85;;;;;;;22.75;100.00;102678.50;5054927;28;20025;-59
2022/08/07 08:04:22;;;;;;;3.20;2.00;;;;;;;22.77;100.00;102639.88;5020451;28;20124;-59
2022/08/07 08:06:48;;;;;;;4.28;2.30;;;;;;;23.49;100.00;102680.59;5053443;28;20024;-59
2022/08/07 08:09:15;;;;;;;2.55;2.10;;;;;;;23.58;100.00;102643.38;5054570;28;20044;-61
2022/08/07 08:11:42;;;;;;;3.00;2.67;;;;;;;23.61;100.00;102683.53;5054523;28;20485;-59
2022/08/07 08:14:07;;;;;;;3.47;2.83;;;;;;;23.79;100.00;102685.16;5054642;28;20546;-60
2022/08/07 08:16:38;;;;;;;2.88;2.47;;;;;;;24.27;100.00;102682.25;5053484;28;20029;-59
2022/08/07 08:19:07;;;;;;;3.58;2.28;;;;;;;24.32;100.00;102677.44;5053089;28;20498;-59
2022/08/07 08:27:07;;;;;;;3.00;2.72;;;;;;;24.46;100.00;102682.00;5053919;28;20047;-59
2022/08/07 08:29:41;;;;;;;2.45;2.25;;;;;;;24.34;100.00;102683.56;5052396;28;20388;-60
2022/08/07 08:32:10;;;;;;;3.35;2.20;;;;;;;24.24;100.00;102682.41;5052615;28;20044;-59
2022/08/07 08:34:38;;;;;;;3.92;2.10;;;;;;;24.40;100.00;102676.97;5052925;28;20456;-60
2022/08/07 08:37:04;;;;;;;4.32;2.15;;;;;;;24.70;100.00;102645.44;5053183;28;20040;-58
2022/08/07 08:39:29;;;;;;;2.88;2.10;;;;;;;24.98;100.00;102682.31;5052710;28;20053;-60
2022/08/07 08:42:31;;;;;;;2.35;1.88;;;;;;;25.17;100.00;102680.16;5036303;28;20029;-60
2022/08/07 08:45:06;;;;;;;2.30;1.42;;;;;;;25.27;89.77;102684.00;5036343;28;20106;-58
2022/08/07 08:47:42;;;;;;;2.30;1.17;;;;;;;25.42;81.51;102680.31;5052833;28;20037;-59
2022/08/07 08:50:32;;;;;;;1.50;1.35;;;;;;;25.61;96.02;102679.97;5052597;28;20029;-59
2022/08/07 08:53:21;;;;;;;4.43;1.98;;;;;;;25.63;94.48;102683.41;5047576;28;20174;-62
2022/08/07 08:55:55;;;;;;;4.97;2.38;;;;;;;25.60;92.42;102689.00;5053988;28;20108;-59
2022/08/07 08:58:51;;;;;;;6.38;2.35;;;;;;;25.72;97.55;102680.09;5052626;28;20082;-60
2022/08/07 09:01:24;;;;;;;2.88;2.42;;;;;;;25.31;92.01;102630.72;5052786;28;20039;-59
2022/08/07 09:04:06;;;;;;;2.45;2.10;;;;;;;25.72;96.95;102627.03;5052721;28;20540;-54
2022/08/07 09:06:44;;;;;;;6.35;2.45;;;;;;;26.17;100.00;102684.25;5035821;28;20083;-58
2022/08/07 09:09:20;;;;;;;4.70;2.33;;;;;;;26.57;100.00;102682.31;5053343;28;20481;-60
2022/08/07 09:12:16;;;;;;;4.15;2.70;;;;;;;25.94;95.17;102683.09;5053442;28;20511;-61
2022/08/07 09:15:02;;;;;;;2.92;2.58;;;;;;;25.33;95.62;102634.19;5048766;28;20396;-59
2022/08/07 09:17:43;;;;;;;4.25;2.90;;;;;;;25.76;97.78;102670.84;5053363;28;20029;-59
2022/08/07 09:20:21;;;;;;;4.07;2.83;;;;;;;26.10;100.00;102678.38;5053462;28;20100;-58
2022/08/07 09:23:19;;;;;;;3.00;2.70;;;;;;;26.21;100.00;102685.78;5053635;28;20027;-58
2022/08/07 09:26:05;;;;;;;2.85;2.40;;;;;;;25.94;99.14;102679.53;5052056;28;20040;-56
2022/08/07 09:28:34;;;;;;;4.60;2.85;;;;;;;26.04;100.00;102637.44;5052197;28;20060;-59
2022/08/07 09:31:07;;;;;;;3.25;2.85;;;;;;;25.61;99.05;102678.13;5051738;28;20473;-60
2022/08/07 09:34:12;;;;;;;2.67;2.45;;;;;;;26.10;100.00;102672.97;5052003;28;20403;-57
2022/08/07 09:36:47;;;;;;;4.22;3.17;;;;;;;26.81;98.59;102677.91;5052046;28;20033;-58
2022/08/07 09:39:40;;;;;;;4.90;3.00;;;;;;;27.04;95.59;102665.44;5051553;28;20053;-59
2022/08/07 09:42:42;;;;;;;2.97;2.63;;;;;;;27.44;93.96;102668.81;5053203;28;20039;-57
2022/08/07 09:45:19;;;;;;;3.20;2.90;;;;;;;27.59;89.15;102673.06;5050961;28;20029;-55
2022/08/07 09:47:57;;;;;;;3.22;2.63;;;;;;;27.75;100.00;102662.81;5052894;28;20052;-59
2022/08/07 09:50:44;;;;;;;4.28;2.90;;;;;;;27.63;94.84;102671.84;5051597;28;20063;-56
2022/08/07 09:53:10;;;;;;;2.67;2.40;;;;;;;28.04;83.68;102629.00;5051735;28;20060;-59
2022/08/07 09:56:06;;;;;;;2.83;2.35;;;;;;;27.86;88.15;102660.16;5052919;28;20033;-57
2022/08/07 09:59:00;;;;;;;4.20;2.55;;;;;;;27.34;89.41;102653.25;5052835;28;20036;-56
2022/08/07 10:01:53;;;;;;;4.88;2.55;;;;;;;27.45;90.25;102654.28;5052587;28;20465;-56
2022/08/07 10:04:43;;;;;;;2.42;2.17;;;;;;;27.58;88.87;102647.00;5052668;28;20052;-60
2022/08/07 10:07:40;;;;;;;3.40;2.40;;;;;;;28.08;90.63;102638.56;5052590;28;20029;-57
2022/08/07 10:10:33;;;;;;;3.67;2.42;;;;;;;28.36;91.73;102643.56;5052167;28;20069;-58
2022/08/07 10:13:40;;;;;;;3.10;2.38;;;;;;;28.52;85.28;102640.50;5052503;28;20033;-57
2022/08/07 10:16:24;;;;;;;3.45;2.25;;;;;;;28.25;84.62;102634.56;5052315;28;20108;-57
2022/08/07 10:18:55;;;;;;;4.78;2.70;;;;;;;28.47;93.40;102630.03;5052419;28;20111;-56
2022/08/07 10:21:28;;;;;;;3.95;2.40;;;;;;;28.28;80.26;102577.47;5052461;28;20037;-57
2022/08/07 10:24:29;;;;;;;3.00;2.65;;;;;;;28.93;92.92;102619.06;5051739;28;20033;-60
2022/08/07 10:27:10;;;;;;;2.40;2.17;;;;;;;29.11;86.25;102630.25;5033446;28;20060;-59
2022/08/07 10:30:05;;;;;;;3.90;2.10;;;;;;;29.16;78.44;102627.19;5049899;28;20507;-59
2022/08/07 10:32:54;;;;;;;3.38;2.33;;;;;;;28.87;84.69;102587.03;5049982;28;20060;-57
2022/08/07 10:35:20;;;;;;;4.20;2.35;;;;;;;28.82;86.73;102616.38;5051216;28;20507;-61
2022/08/07 10:38:05;;;;;;;3.75;2.75;;;;;;;28.26;83.71;102607.34;5049506;28;20468;-57
2022/08/07 10:40:43;;;;;;;4.88;2.85;;;;;;;28.84;87.40;102608.09;5049773;28;20067;-56
2022/08/07 10:43:23;;;;;;;3.28;1.95;;;;;;;28.66;87.74;102612.34;5049750;28;20029;-56
2022/08/07 10:45:53;;;;;;;2.43;2.10;;;;;;;28.98;90.90;102611.41;5049569;28;20029;-55
2022/08/07 10:48:27;;;;;;;3.65;1.98;;;;;;;29.08;84.14;102608.81;5033269;28;20365;-53
2022/08/07 10:50:59;;;;;;;4.63;2.53;;;;;;;28.91;85.40;102609.34;5051049;28;20048;-55
2022/08/07 10:53:27;;;;;;;3.05;2.50;;;;;;;29.03;83.35;102611.06;5049776;28;20124;-59
2022/08/07 10:56:23;;;;;;;2.70;2.28;;;;;;;29.05;79.76;102603.63;5052095;28;20037;-58
2022/08/07 10:59:10;;;;;;;4.57;2.47;;;;;;;28.99;83.20;102598.72;5053957;28;20476;-58
2022/08/07 11:01:40;;;;;;;3.75;1.98;;;;;;;29.23;82.12;102596.72;5055831;28;20033;-57
2022/08/07 11:04:25;;;;;;;2.92;2.05;;;;;;;29.72;73.92;102543.72;5056207;28;20029;-57
2022/08/07 11:07:05;;;;;;;2.95;1.40;;;;;;;29.78;70.04;102554.91;5055985;28;20116;-56
2022/08/07 11:09:35;;;;;;;2.23;1.60;;;;;;;29.84;70.21;102553.53;5054512;28;20126;-57
2022/08/07 11:12:18;;;;;;;1.52;1.20;;;;;;;30.11;70.08;102591.88;5055873;28;20079;-56
2022/08/07 11:15:01;;;;;;;1.98;1.48;;;;;;;29.34;68.29;102593.97;5054729;28;20033;-58
2022/08/07 11:17:47;;;;;;;1.75;1.65;;;;;;;29.04;71.23;102582.97;5055756;28;20033;-59
2022/08/07 11:20:12;;;;;;;1.95;1.50;;;;;;;29.71;65.78;102585.44;5054458;28;20021;-57
2022/08/07 11:22:41;;;;;;;2.17;1.57;;;;;;;29.83;69.11;102596.13;5055526;28;20040;-57
2022/08/07 11:25:22;;;;;;;2.88;1.33;;;;;;;29.97;63.35;102584.06;5054377;28;20275;-59
2022/08/07 11:28:07;;;;;;;3.05;1.27;;;;;;;29.88;64.73;102568.59;5053990;28;20025;-57
2022/08/07 11:31:03;;;;;;;1.58;1.10;;;;;;;29.97;64.02;102548.78;5054141;28;20029;-57
2022/08/07 11:33:45;;;;;;;1.50;1.08;;;;;;;30.98;61.05;102582.25;5054484;28;20025;-58
2022/08/07 11:36:38;;;;;;;1.23;0.80;;;;;;;31.34;49.65;102572.56;5054082;28;20067;-58